Archival Weather

Salzburg

Salzburg, Austria (LOWS)

Report from: Friday, May 26, 2023 9:50 PM CEST
Current time: Saturday, June 22, 2024 2:50 AM CEST

Current weather – Weather history – Daily summaries
Weather forecast

Temperature15.0°C (59.0°F)
Dew point12.0°C (53.6°F)
Winds 2 kts (1 m/s, 2.3 mph) South-Southwest (200°)
Visibility6.2 mi. (10 km)
Clouds Few clouds 6,000 ft. (1,829 m)
Altimeter30.21 in.Hg (1023 mB)
Relative humidity82 %
Density altitude-132 ft. (-40 m)
Remarks No significant changes expected in the next two hours
Flight conditions Visual Meteorological Conditions
Raw dataLOWS 261950Z 20002KT 9999 FEW060 15/12 Q1023 NOSIG
An error has occurred. This application may no longer respond until reloaded. Reload 🗙